createdAt,value
2019-03-09T22:44:18.710Z,1002.28
2019-03-09T22:45:18.253Z,1002.48
2019-03-09T22:47:12.180Z,1002.54
2019-03-09T22:48:11.053Z,1002.40
2019-03-09T22:50:03.765Z,1002.45
2019-03-09T22:51:03.684Z,1002.53
2019-03-09T22:52:56.489Z,1002.55
2019-03-09T22:53:56.390Z,1002.58
2019-03-09T22:55:49.345Z,1002.42
2019-03-09T22:56:49.280Z,1002.64
2019-03-09T22:58:42.078Z,1002.61
2019-03-09T22:59:42.431Z,1002.66
2019-03-09T23:01:34.752Z,1002.72
2019-03-09T23:02:34.668Z,1002.52
2019-03-09T23:04:27.461Z,1002.77
2019-03-09T23:05:27.584Z,1002.66
2019-03-09T23:07:20.142Z,1002.78
2019-03-09T23:08:20.056Z,1002.87
2019-03-09T23:10:12.826Z,1002.86
2019-03-09T23:11:12.850Z,1002.85
2019-03-09T23:13:05.551Z,1002.97
2019-03-09T23:14:05.739Z,1003.01
2019-03-09T23:15:58.504Z,1002.95
2019-03-09T23:16:58.450Z,1002.99
2019-03-09T23:18:51.207Z,1003.00
2019-03-09T23:19:51.130Z,1002.94
2019-03-09T23:21:44.094Z,1002.99
2019-03-09T23:22:43.891Z,1003.03
2019-03-09T23:24:36.651Z,1002.99
2019-03-09T23:25:37.042Z,1003.12
2019-03-09T23:27:29.452Z,1003.05
2019-03-09T23:28:29.357Z,1003.03
2019-03-09T23:30:22.138Z,1002.95
2019-03-09T23:31:22.065Z,1002.96
2019-03-09T23:33:14.933Z,1003.01
2019-03-09T23:34:14.847Z,1003.03
2019-03-09T23:36:07.782Z,1003.08
2019-03-09T23:37:07.839Z,1003.09
2019-03-09T23:39:00.526Z,1003.13
2019-03-09T23:40:00.436Z,1003.11
2019-03-09T23:41:53.251Z,1003.17
2019-03-09T23:42:53.181Z,1003.16
2019-03-09T23:44:46.012Z,1003.19
2019-03-09T23:45:45.923Z,1003.07
2019-03-09T23:47:38.706Z,1003.04
2019-03-09T23:48:38.627Z,1003.18
2019-03-09T23:50:31.424Z,1003.20
2019-03-09T23:51:31.348Z,1003.27
2019-03-09T23:53:24.133Z,1003.30
2019-03-09T23:54:24.032Z,1003.24
2019-03-09T23:56:16.999Z,1003.27
2019-03-09T23:57:16.906Z,1003.26
2019-03-09T23:59:09.768Z,1003.24
